createdAt,value
2023-03-24T00:02:15.820Z,57.77
2023-03-24T00:04:47.530Z,57.84
2023-03-24T00:07:18.878Z,57.84
2023-03-24T00:09:48.034Z,57.99
2023-03-24T00:12:18.172Z,57.93
2023-03-24T00:14:47.222Z,57.86
2023-03-24T00:17:17.377Z,57.98
2023-03-24T00:19:46.656Z,57.95
2023-03-24T00:22:15.846Z,57.99
2023-03-24T00:24:45.823Z,58.04
2023-03-24T00:27:17.024Z,58.08
2023-03-24T00:29:46.170Z,57.95
2023-03-24T00:32:15.357Z,58.18
2023-03-24T00:34:44.417Z,58.17
2023-03-24T00:37:13.595Z,58.25
2023-03-24T00:39:43.838Z,58.29
2023-03-24T00:42:13.278Z,58.34
2023-03-24T00:44:44.326Z,58.38
2023-03-24T00:47:13.361Z,58.44
2023-03-24T00:49:42.598Z,58.53
2023-03-24T00:52:13.127Z,58.49
2023-03-24T00:54:42.789Z,58.55
2023-03-24T00:57:14.147Z,58.58
2023-03-24T00:59:48.549Z,58.70
2023-03-24T01:02:21.695Z,58.66
2023-03-24T01:04:55.925Z,58.72
2023-03-24T01:07:26.736Z,58.70
2023-03-24T01:09:57.305Z,58.74
2023-03-24T01:12:27.715Z,58.84
2023-03-24T01:14:59.435Z,58.83
2023-03-24T01:17:29.526Z,58.85
2023-03-24T01:19:58.959Z,59.01
2023-03-24T01:22:30.734Z,59.06
2023-03-24T01:25:00.390Z,59.19
2023-03-24T01:27:29.529Z,59.16
2023-03-24T01:30:01.136Z,59.26
2023-03-24T01:32:30.646Z,59.29
2023-03-24T01:34:59.848Z,59.43
2023-03-24T01:37:29.271Z,59.29
2023-03-24T01:39:58.486Z,59.46
2023-03-24T01:42:28.461Z,59.51
2023-03-24T01:45:21.746Z,59.65
2023-03-24T01:47:51.130Z,59.62
2023-03-24T01:50:20.920Z,59.67
2023-03-24T01:52:50.040Z,59.62
2023-03-24T01:55:19.697Z,59.72
2023-03-24T01:57:51.859Z,59.75
2023-03-24T02:00:22.393Z,59.77
2023-03-24T02:02:57.981Z,59.67
2023-03-24T02:05:32.612Z,59.79
2023-03-24T02:08:09.501Z,59.85
2023-03-24T02:10:39.651Z,59.86
2023-03-24T02:13:09.800Z,59.82
2023-03-24T02:15:45.689Z,59.89
2023-03-24T02:18:25.120Z,59.97
2023-03-24T02:21:30.182Z,59.86
2023-03-24T02:24:34.033Z,59.97
2023-03-24T02:27:10.134Z,60.10
2023-03-24T02:30:11.044Z,60.02
2023-03-24T02:33:20.299Z,59.98
2023-03-24T02:36:22.986Z,60.14
2023-03-24T02:39:15.674Z,60.15
2023-03-24T02:41:53.707Z,60.17
2023-03-24T02:44:30.793Z,60.17
2023-03-24T02:47:08.650Z,60.14
2023-03-24T02:49:45.433Z,60.30
2023-03-24T02:52:21.315Z,60.22
2023-03-24T02:54:51.646Z,60.35
2023-03-24T02:57:26.680Z,60.42
2023-03-24T03:00:01.921Z,60.42
2023-03-24T03:02:35.229Z,60.45
2023-03-24T03:05:09.099Z,60.42
2023-03-24T03:07:38.569Z,60.44
2023-03-24T03:10:13.974Z,60.45
2023-03-24T03:12:44.544Z,60.51
2023-03-24T03:15:17.759Z,60.55
2023-03-24T03:17:53.287Z,60.58
2023-03-24T03:20:24.500Z,60.58
2023-03-24T03:23:00.273Z,60.65
2023-03-24T03:25:35.323Z,60.68
2023-03-24T03:28:06.934Z,60.59
2023-03-24T03:30:40.061Z,60.69
2023-03-24T03:33:17.751Z,60.76
2023-03-24T03:35:52.859Z,60.70
2023-03-24T03:38:27.068Z,60.63
2023-03-24T03:40:58.759Z,60.82
2023-03-24T03:43:30.364Z,60.77
2023-03-24T03:46:01.208Z,60.84
2023-03-24T03:48:31.132Z,60.78
2023-03-24T03:51:13.177Z,60.85
2023-03-24T03:53:48.400Z,60.92
2023-03-24T03:56:20.732Z,60.85
2023-03-24T03:58:50.507Z,61.00
2023-03-24T04:01:22.708Z,60.98
2023-03-24T04:04:19.700Z,61.02
2023-03-24T04:07:00.039Z,60.96
2023-03-24T04:09:42.218Z,60.96
2023-03-24T04:12:26.986Z,60.84
2023-03-24T04:15:17.084Z,60.90
2023-03-24T04:18:06.570Z,60.99
2023-03-24T04:20:45.998Z,61.03
2023-03-24T04:23:28.039Z,61.06
2023-03-24T04:26:06.965Z,60.98
2023-03-24T04:28:47.417Z,61.00
2023-03-24T04:31:23.064Z,61.09
2023-03-24T04:33:57.793Z,61.14
2023-03-24T04:36:33.965Z,61.08
2023-03-24T04:39:04.557Z,61.03
2023-03-24T04:41:34.227Z,61.08
2023-03-24T04:44:04.511Z,61.07
2023-03-24T04:46:34.770Z,61.13
2023-03-24T04:49:04.444Z,61.19
2023-03-24T04:51:34.499Z,61.19
2023-03-24T04:54:03.693Z,61.20
2023-03-24T04:56:40.169Z,61.26
2023-03-24T04:59:09.409Z,61.29
2023-03-24T05:01:38.666Z,61.27
2023-03-24T05:04:08.857Z,61.21
2023-03-24T05:06:37.739Z,61.28
2023-03-24T05:09:06.630Z,61.36
2023-03-24T05:11:36.028Z,61.34
2023-03-24T05:14:04.930Z,61.40
2023-03-24T05:16:33.925Z,61.41
2023-03-24T05:19:03.615Z,61.34
2023-03-24T05:21:33.849Z,61.37
2023-03-24T05:24:03.244Z,61.38
2023-03-24T05:26:33.403Z,61.50
2023-03-24T05:29:02.769Z,61.53
2023-03-24T05:31:31.637Z,61.45
2023-03-24T05:34:00.717Z,61.39
2023-03-24T05:36:29.550Z,61.38
2023-03-24T05:38:58.579Z,61.48
2023-03-24T05:41:27.734Z,61.47
2023-03-24T05:43:56.786Z,61.31
2023-03-24T05:46:26.683Z,61.29
2023-03-24T05:48:55.819Z,61.43
2023-03-24T05:51:25.004Z,61.27
2023-03-24T05:53:54.100Z,61.24
2023-03-24T05:56:23.186Z,61.11
2023-03-24T05:58:52.187Z,61.05
2023-03-24T06:01:21.206Z,61.01
2023-03-24T06:03:50.137Z,60.94
2023-03-24T06:06:19.011Z,60.77
2023-03-24T06:08:48.891Z,60.86
2023-03-24T06:11:18.186Z,60.92
2023-03-24T06:13:47.435Z,60.71
2023-03-24T06:16:18.252Z,60.76
2023-03-24T06:18:51.829Z,60.44
2023-03-24T06:21:21.597Z,60.53
2023-03-24T06:23:50.550Z,60.42
2023-03-24T06:26:19.628Z,60.06
2023-03-24T06:28:51.298Z,60.48
2023-03-24T06:31:21.033Z,60.43
2023-03-24T06:33:51.062Z,60.43
2023-03-24T06:36:20.464Z,60.20
2023-03-24T06:38:51.003Z,59.78
2023-03-24T06:41:20.208Z,59.76
2023-03-24T06:43:49.097Z,59.77
2023-03-24T06:46:18.082Z,59.63
2023-03-24T06:48:48.556Z,59.51
2023-03-24T06:51:18.070Z,59.36
2023-03-24T06:53:47.126Z,59.26
2023-03-24T06:56:17.658Z,59.23
2023-03-24T06:58:47.462Z,58.88
2023-03-24T07:01:16.595Z,58.58
2023-03-24T07:03:45.821Z,58.58
2023-03-24T07:06:15.079Z,58.20
2023-03-24T07:08:45.410Z,57.74
2023-03-24T07:11:15.026Z,57.78
2023-03-24T07:13:43.994Z,57.69
2023-03-24T07:16:13.124Z,57.58
2023-03-24T07:18:42.119Z,57.69
2023-03-24T07:21:11.129Z,57.66
2023-03-24T07:23:40.135Z,57.19
2023-03-24T07:26:09.000Z,57.12
2023-03-24T07:28:38.062Z,57.04
2023-03-24T07:31:10.209Z,56.86
2023-03-24T07:33:39.597Z,56.88
2023-03-24T07:36:09.859Z,56.44
2023-03-24T07:38:38.820Z,55.69
2023-03-24T07:41:07.991Z,55.86
2023-03-24T07:43:37.070Z,55.84
2023-03-24T07:46:09.049Z,55.46
2023-03-24T07:48:38.338Z,55.85
2023-03-24T07:51:07.636Z,55.51
2023-03-24T07:53:37.112Z,55.16
2023-03-24T07:56:07.197Z,55.12
2023-03-24T07:58:36.065Z,55.01
2023-03-24T08:01:09.150Z,54.82
2023-03-24T08:03:38.417Z,54.55
2023-03-24T08:06:09.242Z,54.70
2023-03-24T08:08:38.394Z,54.32
2023-03-24T08:11:07.631Z,54.18
2023-03-24T08:13:36.628Z,53.95
2023-03-24T08:16:06.218Z,53.50
2023-03-24T08:18:38.238Z,52.79
2023-03-24T08:21:07.605Z,52.96
2023-03-24T08:23:36.583Z,52.53
2023-03-24T08:26:06.662Z,52.55
2023-03-24T08:28:35.726Z,52.33
2023-03-24T08:31:05.560Z,51.94
2023-03-24T08:33:35.482Z,51.84
2023-03-24T08:36:05.154Z,52.09
2023-03-24T08:38:38.170Z,51.81
2023-03-24T08:41:07.986Z,50.48
2023-03-24T08:43:37.713Z,51.21
2023-03-24T08:46:10.548Z,51.08
2023-03-24T08:48:41.337Z,50.82
2023-03-24T08:51:15.144Z,51.17
2023-03-24T08:53:44.414Z,50.39
2023-03-24T08:56:13.771Z,50.12
2023-03-24T08:58:42.815Z,50.14
2023-03-24T09:01:11.918Z,50.17
2023-03-24T09:03:40.965Z,50.02
2023-03-24T09:06:10.797Z,49.91
2023-03-24T09:08:40.814Z,49.39
2023-03-24T09:11:15.729Z,48.90
2023-03-24T09:13:45.450Z,48.78
2023-03-24T09:16:15.037Z,48.64
2023-03-24T09:18:44.956Z,49.19
2023-03-24T09:21:14.363Z,49.18
2023-03-24T09:23:43.678Z,49.09
2023-03-24T09:26:12.774Z,48.36
2023-03-24T09:28:41.792Z,48.16
2023-03-24T09:31:11.768Z,48.23
2023-03-24T09:33:41.071Z,48.23
2023-03-24T09:36:11.559Z,48.26
2023-03-24T09:38:41.080Z,48.05
2023-03-24T09:41:17.312Z,47.55
2023-03-24T09:43:50.580Z,47.31
2023-03-24T09:46:28.970Z,47.03
2023-03-24T09:48:58.516Z,47.16
2023-03-24T09:51:29.569Z,46.79
2023-03-24T09:54:09.370Z,46.55
2023-03-24T09:56:41.383Z,46.36
2023-03-24T09:59:16.433Z,46.07
2023-03-24T10:01:45.818Z,45.62
2023-03-24T10:04:18.742Z,44.88
2023-03-24T10:06:52.667Z,45.13
2023-03-24T10:09:28.015Z,44.67
2023-03-24T10:12:16.471Z,44.67
2023-03-24T10:15:05.594Z,44.98
2023-03-24T10:17:46.968Z,44.33
2023-03-24T10:20:28.868Z,43.75
2023-03-24T10:23:05.471Z,43.77
2023-03-24T10:25:47.666Z,43.67
2023-03-24T10:28:23.559Z,43.64
2023-03-24T10:30:56.180Z,43.73
2023-03-24T10:33:25.378Z,43.48
2023-03-24T10:36:01.494Z,43.60
2023-03-24T10:38:30.916Z,43.09
2023-03-24T10:41:00.961Z,43.22
2023-03-24T10:43:30.919Z,42.77
2023-03-24T10:46:02.171Z,43.12
2023-03-24T10:48:45.012Z,42.62
2023-03-24T10:51:17.438Z,42.39
2023-03-24T10:53:48.231Z,41.56
2023-03-24T10:56:19.422Z,41.73
2023-03-24T10:58:48.601Z,41.74
2023-03-24T11:01:26.736Z,41.69
2023-03-24T11:04:03.944Z,41.66
2023-03-24T11:06:33.789Z,40.87
2023-03-24T11:09:16.239Z,40.89
2023-03-24T11:11:46.066Z,41.02
2023-03-24T11:14:24.755Z,40.85
2023-03-24T11:17:02.996Z,41.05
2023-03-24T11:19:36.175Z,40.37
2023-03-24T11:22:06.776Z,40.19
2023-03-24T11:24:38.206Z,40.42
2023-03-24T11:27:14.551Z,40.36
2023-03-24T11:29:46.220Z,40.15
2023-03-24T11:32:20.404Z,40.00
2023-03-24T11:34:57.197Z,40.04
2023-03-24T11:37:32.737Z,39.99
2023-03-24T11:40:20.772Z,40.20
2023-03-24T11:42:53.332Z,40.17
2023-03-24T11:45:27.289Z,40.11
2023-03-24T11:47:58.221Z,39.45
2023-03-24T11:50:30.172Z,39.32
2023-03-24T11:53:07.703Z,39.49
2023-03-24T11:55:43.229Z,39.72
2023-03-24T11:58:17.528Z,39.42
2023-03-24T12:00:52.544Z,39.11
2023-03-24T12:03:51.984Z,39.04
2023-03-24T12:06:35.288Z,38.95
2023-03-24T12:09:20.056Z,39.12
2023-03-24T12:12:13.425Z,38.84
2023-03-24T12:14:53.012Z,38.99
2023-03-24T12:17:25.590Z,38.68
2023-03-24T12:20:11.801Z,38.87
2023-03-24T12:22:52.567Z,38.80
2023-03-24T12:25:51.256Z,38.78
2023-03-24T12:28:45.882Z,38.56
2023-03-24T12:31:39.396Z,38.03
2023-03-24T12:34:31.752Z,38.48
2023-03-24T12:37:07.885Z,38.53
2023-03-24T12:39:48.640Z,38.15
2023-03-24T12:42:19.464Z,37.79
2023-03-24T12:45:27.352Z,37.97
2023-03-24T12:48:12.871Z,37.70
2023-03-24T12:50:53.894Z,37.84
2023-03-24T12:53:41.134Z,37.98
2023-03-24T12:56:16.966Z,37.83
2023-03-24T12:58:49.659Z,37.81
2023-03-24T13:01:28.868Z,37.82
2023-03-24T13:04:05.290Z,37.82
2023-03-24T13:06:40.228Z,37.17
2023-03-24T13:09:19.563Z,37.59
2023-03-24T13:11:57.467Z,37.37
2023-03-24T13:14:31.960Z,37.35
2023-03-24T13:17:06.077Z,37.58
2023-03-24T13:19:37.683Z,37.46
2023-03-24T13:22:12.504Z,37.28
2023-03-24T13:24:42.256Z,37.04
2023-03-24T13:27:16.647Z,37.31
2023-03-24T13:30:15.703Z,36.72
2023-03-24T13:32:48.139Z,37.15
2023-03-24T13:35:28.286Z,36.95
2023-03-24T13:38:05.508Z,37.08
2023-03-24T13:40:39.849Z,37.23
2023-03-24T13:43:13.405Z,37.38
2023-03-24T13:45:47.214Z,37.08
2023-03-24T13:48:27.195Z,37.04
2023-03-24T13:51:00.296Z,37.27
2023-03-24T13:53:36.112Z,37.25
2023-03-24T13:56:08.865Z,37.24
2023-03-24T13:59:08.372Z,37.20
2023-03-24T14:01:39.403Z,37.10
2023-03-24T14:04:28.121Z,37.03
2023-03-24T14:06:58.884Z,37.05
2023-03-24T14:09:30.585Z,37.00
2023-03-24T14:12:26.495Z,36.85
2023-03-24T14:15:17.952Z,36.75
2023-03-24T14:17:50.095Z,36.74
2023-03-24T14:20:34.651Z,36.93
2023-03-24T14:23:04.952Z,37.04
2023-03-24T14:25:36.256Z,37.01
2023-03-24T14:28:28.459Z,37.04
2023-03-24T14:31:03.031Z,37.26
2023-03-24T14:33:32.084Z,37.36
2023-03-24T14:36:11.405Z,37.21
2023-03-24T14:38:44.556Z,37.25
2023-03-24T14:41:16.688Z,37.39
2023-03-24T14:43:57.774Z,37.48
2023-03-24T14:46:41.350Z,37.41
2023-03-24T14:49:23.600Z,37.70
2023-03-24T14:51:58.343Z,37.59
2023-03-24T14:54:34.815Z,37.35
2023-03-24T14:57:05.794Z,37.57
2023-03-24T14:59:46.746Z,37.44
2023-03-24T15:02:27.811Z,37.46
2023-03-24T15:05:21.900Z,37.46
2023-03-24T15:08:11.279Z,37.68
2023-03-24T15:10:44.769Z,37.58
2023-03-24T15:13:31.853Z,37.46
2023-03-24T15:16:03.139Z,37.45
2023-03-24T15:18:32.350Z,37.51
2023-03-24T15:21:01.340Z,37.41
2023-03-24T15:23:30.794Z,37.49
2023-03-24T15:26:00.297Z,37.45
2023-03-24T15:28:30.513Z,37.41
2023-03-24T15:31:00.740Z,37.39
2023-03-24T15:33:30.526Z,37.42
2023-03-24T15:36:01.648Z,37.32
2023-03-24T15:38:32.945Z,37.47
2023-03-24T15:41:05.851Z,37.55
2023-03-24T15:43:41.585Z,37.50
2023-03-24T15:46:19.856Z,37.43
2023-03-24T15:48:49.711Z,37.55
2023-03-24T15:51:18.749Z,37.50
2023-03-24T15:53:55.680Z,37.73
2023-03-24T15:56:28.493Z,37.66
2023-03-24T15:59:08.616Z,37.57
2023-03-24T16:01:38.040Z,37.73
2023-03-24T16:04:12.951Z,37.74
2023-03-24T16:06:47.966Z,37.84
2023-03-24T16:09:21.137Z,37.74
2023-03-24T16:11:50.402Z,37.65
2023-03-24T16:14:23.822Z,37.89
2023-03-24T16:16:55.571Z,38.12
2023-03-24T16:19:25.375Z,38.10
2023-03-24T16:21:54.907Z,38.29
2023-03-24T16:24:24.203Z,38.25
2023-03-24T16:26:53.177Z,38.34
2023-03-24T16:29:23.685Z,38.43
2023-03-24T16:31:55.699Z,38.50
2023-03-24T16:34:25.324Z,38.67
2023-03-24T16:36:55.550Z,38.45
2023-03-24T16:39:26.201Z,38.52
2023-03-24T16:41:55.848Z,38.51
2023-03-24T16:44:25.333Z,38.88
2023-03-24T16:46:55.412Z,38.68
2023-03-24T16:49:25.622Z,38.80
2023-03-24T16:51:55.651Z,38.74
2023-03-24T16:54:24.837Z,38.67
2023-03-24T16:56:53.869Z,38.88
2023-03-24T16:59:22.938Z,38.91
2023-03-24T17:01:55.687Z,38.88
2023-03-24T17:04:26.858Z,39.12
2023-03-24T17:06:55.842Z,38.92
2023-03-24T17:09:25.270Z,39.03
2023-03-24T17:11:56.881Z,39.03
2023-03-24T17:14:25.845Z,39.00
2023-03-24T17:16:54.838Z,39.02
2023-03-24T17:19:25.046Z,39.24
2023-03-24T17:21:59.517Z,39.32
2023-03-24T17:24:29.460Z,39.27
2023-03-24T17:26:58.474Z,39.26
2023-03-24T17:29:27.436Z,39.26
2023-03-24T17:31:56.407Z,39.24
2023-03-24T17:34:25.444Z,39.43
2023-03-24T17:36:54.936Z,39.34
2023-03-24T17:39:23.930Z,39.48
2023-03-24T17:41:57.010Z,39.41
2023-03-24T17:44:26.021Z,39.68
2023-03-24T17:46:55.135Z,39.46
2023-03-24T17:49:24.147Z,39.68
2023-03-24T17:51:53.128Z,39.64
2023-03-24T17:54:22.032Z,39.61
2023-03-24T17:56:51.357Z,39.70
2023-03-24T17:59:21.521Z,39.67
2023-03-24T18:01:50.514Z,39.70
2023-03-24T18:04:20.047Z,39.70
2023-03-24T18:06:49.050Z,39.83
2023-03-24T18:09:18.308Z,39.72
2023-03-24T18:11:47.928Z,39.76
2023-03-24T18:14:16.951Z,39.80
2023-03-24T18:16:45.897Z,39.69
2023-03-24T18:19:15.647Z,39.76
2023-03-24T18:21:44.721Z,39.87
2023-03-24T18:24:13.795Z,39.93
2023-03-24T18:26:42.895Z,39.82
2023-03-24T18:29:12.513Z,39.94
2023-03-24T18:31:41.677Z,39.92
2023-03-24T18:34:10.684Z,40.05
2023-03-24T18:36:39.735Z,40.36
2023-03-24T18:39:10.194Z,40.43
2023-03-24T18:41:40.060Z,40.29
2023-03-24T18:44:13.100Z,40.40
2023-03-24T18:46:42.149Z,40.45
2023-03-24T18:49:13.601Z,40.65
2023-03-24T18:51:44.687Z,40.73
2023-03-24T18:54:13.756Z,40.82
2023-03-24T18:56:42.664Z,40.87
2023-03-24T18:59:12.098Z,40.99
2023-03-24T19:01:41.177Z,40.82
2023-03-24T19:04:10.588Z,40.80
2023-03-24T19:06:41.741Z,40.77
2023-03-24T19:09:12.868Z,40.67
2023-03-24T19:11:43.434Z,40.68
2023-03-24T19:14:12.638Z,40.73
2023-03-24T19:16:41.748Z,40.71
2023-03-24T19:19:10.799Z,40.71
2023-03-24T19:21:40.068Z,40.60
2023-03-24T19:24:09.594Z,40.68
2023-03-24T19:26:39.810Z,40.70
2023-03-24T19:29:08.939Z,40.63
2023-03-24T19:31:38.041Z,40.73
2023-03-24T19:34:07.038Z,40.65
2023-03-24T19:36:36.425Z,40.66
2023-03-24T19:39:05.727Z,40.63
2023-03-24T19:41:34.735Z,40.67
2023-03-24T19:44:05.126Z,40.72
2023-03-24T19:46:34.274Z,40.70
2023-03-24T19:49:03.450Z,40.75
2023-03-24T19:51:32.373Z,40.92
2023-03-24T19:54:01.216Z,40.95
2023-03-24T19:56:30.472Z,40.86
2023-03-24T19:58:59.413Z,41.10
2023-03-24T20:01:34.292Z,41.22
2023-03-24T20:04:03.381Z,41.33
2023-03-24T20:06:32.414Z,41.51
2023-03-24T20:09:01.365Z,41.59
2023-03-24T20:11:30.723Z,41.64
2023-03-24T20:13:59.719Z,41.83
2023-03-24T20:16:28.680Z,41.88
2023-03-24T20:18:58.206Z,41.96
2023-03-24T20:21:28.224Z,42.07
2023-03-24T20:23:57.597Z,42.12
2023-03-24T20:26:28.886Z,42.37
2023-03-24T20:28:58.427Z,42.35
2023-03-24T20:31:28.310Z,42.50
2023-03-24T20:33:57.441Z,42.54
2023-03-24T20:36:26.290Z,42.52
2023-03-24T20:38:58.861Z,42.44
2023-03-24T20:41:27.764Z,42.49
2023-03-24T20:43:56.792Z,42.43
2023-03-24T20:46:25.830Z,42.54
2023-03-24T20:48:55.433Z,42.57
2023-03-24T20:51:24.420Z,42.49
2023-03-24T20:53:53.457Z,42.58
2023-03-24T20:56:22.417Z,42.70
2023-03-24T20:58:52.072Z,42.83
2023-03-24T21:01:22.436Z,43.06
2023-03-24T21:03:52.965Z,43.16
2023-03-24T21:06:22.072Z,43.20
2023-03-24T21:08:52.388Z,43.31
2023-03-24T21:11:21.646Z,43.30
2023-03-24T21:13:50.687Z,43.44
2023-03-24T21:16:20.042Z,43.51
2023-03-24T21:18:49.479Z,43.54
2023-03-24T21:21:18.438Z,43.53
2023-03-24T21:23:47.988Z,43.62
2023-03-24T21:26:17.608Z,43.52
2023-03-24T21:28:46.670Z,43.73
2023-03-24T21:31:18.895Z,43.78
2023-03-24T21:33:48.100Z,43.75
2023-03-24T21:36:17.852Z,43.78
2023-03-24T21:38:49.092Z,43.82
2023-03-24T21:41:19.236Z,43.92
2023-03-24T21:43:50.500Z,43.94
2023-03-24T21:46:20.759Z,44.00
2023-03-24T21:48:51.310Z,44.07
2023-03-24T21:51:23.561Z,44.18
2023-03-24T21:53:54.876Z,44.09
2023-03-24T21:56:24.068Z,44.17
2023-03-24T21:58:54.468Z,44.21
2023-03-24T22:01:23.814Z,44.32
2023-03-24T22:03:54.255Z,44.30
2023-03-24T22:06:23.778Z,44.37
2023-03-24T22:08:57.606Z,44.41
2023-03-24T22:11:26.683Z,44.60
2023-03-24T22:13:55.660Z,44.63
2023-03-24T22:16:24.729Z,44.66
2023-03-24T22:18:53.756Z,44.75
2023-03-24T22:21:22.595Z,44.79
2023-03-24T22:23:51.807Z,44.86
2023-03-24T22:26:21.184Z,45.07
2023-03-24T22:28:50.539Z,45.07
2023-03-24T22:31:22.451Z,45.18
2023-03-24T22:33:51.605Z,45.21
2023-03-24T22:36:20.965Z,45.27
2023-03-24T22:38:50.037Z,45.36
2023-03-24T22:41:18.987Z,45.42
2023-03-24T22:43:48.637Z,45.52
2023-03-24T22:46:17.766Z,45.57
2023-03-24T22:48:46.670Z,45.64
2023-03-24T22:51:18.598Z,45.62
2023-03-24T22:53:48.307Z,45.71
2023-03-24T22:56:17.197Z,45.80
2023-03-24T22:58:46.085Z,45.81
2023-03-24T23:01:15.408Z,45.85
2023-03-24T23:03:44.400Z,45.93
2023-03-24T23:06:15.332Z,45.94
2023-03-24T23:08:44.399Z,45.95
2023-03-24T23:11:13.356Z,45.99
2023-03-24T23:13:42.260Z,46.04
2023-03-24T23:16:11.927Z,46.18
2023-03-24T23:18:41.098Z,46.25
2023-03-24T23:21:12.876Z,46.31
2023-03-24T23:23:43.086Z,46.43
2023-03-24T23:26:13.818Z,46.52
2023-03-24T23:28:56.127Z,46.72
2023-03-24T23:31:27.673Z,46.88
2023-03-24T23:33:57.940Z,47.09
2023-03-24T23:36:27.700Z,47.25
2023-03-24T23:38:56.883Z,47.30
2023-03-24T23:41:25.858Z,47.31
2023-03-24T23:43:55.338Z,47.55
2023-03-24T23:46:25.181Z,47.60
2023-03-24T23:48:54.257Z,47.78
2023-03-24T23:51:23.134Z,48.05
2023-03-24T23:53:52.093Z,48.13
2023-03-24T23:56:22.159Z,48.09
2023-03-24T23:58:51.729Z,48.28
